Terminal Aerodrome Forecast
Issued by NWS

Home | Current Version | Previous Version | Text Only | Print | Product List | Glossary Off
Versions: 1 2 3 4 5 6 7 8 9 10 11 12 13 14 15 16 17 18 19 20 21 22 23

000
FTUS43 KABR 291300 AAA
TAFPIR
TAF AMD
KPIR 291313Z 2913/3012 VRB03KT 3SM BR SKC
      TEMPO 2913/2915 1/2SM FZFG VV001
     FM291700 14010KT P6SM BKN250
     FM300000 VRB03KT P6SM OVC100
     FM301100 31015KT P6SM OVC025=

USA.gov is the U.S. government's official web portal to all federal, state and local government web resources and services.